createdAt,value
2023-05-10T00:02:19.961Z,98645.47
2023-05-10T00:04:46.634Z,98617.88
2023-05-10T00:07:13.366Z,98624.88
2023-05-10T00:09:40.066Z,98620.44
2023-05-10T00:12:06.940Z,98607.97
2023-05-10T00:14:33.567Z,98615.00
2023-05-10T00:17:00.254Z,98621.34
2023-05-10T00:19:26.986Z,98607.31
2023-05-10T00:21:53.844Z,98606.75
2023-05-10T00:24:20.527Z,98614.34
2023-05-10T00:26:47.627Z,98617.16
2023-05-10T00:29:14.382Z,98608.31
2023-05-10T00:31:41.097Z,98596.13
2023-05-10T00:34:07.853Z,98606.00
2023-05-10T00:36:34.501Z,98590.66
2023-05-10T00:39:01.586Z,98587.97
2023-05-10T00:41:28.530Z,98604.31
2023-05-10T00:43:55.258Z,98595.72
2023-05-10T00:46:22.987Z,98592.63
2023-05-10T00:48:50.200Z,98592.91
2023-05-10T00:51:17.094Z,98599.38
2023-05-10T00:53:46.529Z,98584.06
2023-05-10T00:56:14.076Z,98587.88
2023-05-10T00:58:41.257Z,98585.53
2023-05-10T01:01:08.945Z,98545.22
2023-05-10T01:03:37.041Z,98592.09
2023-05-10T01:06:04.517Z,98572.75
2023-05-10T01:08:31.304Z,98572.19
2023-05-10T01:10:58.579Z,98590.88
2023-05-10T01:13:39.041Z,98594.53
2023-05-10T01:16:07.597Z,98582.16
2023-05-10T01:18:37.741Z,98579.09
2023-05-10T01:21:34.198Z,98581.91
2023-05-10T01:24:23.940Z,98587.94
2023-05-10T01:26:50.607Z,98592.44
2023-05-10T01:29:36.051Z,98584.84
2023-05-10T01:32:11.642Z,98592.84
2023-05-10T01:34:51.635Z,98578.28
2023-05-10T01:37:26.451Z,98569.72
2023-05-10T01:40:19.683Z,98581.38
2023-05-10T01:42:53.071Z,98591.72
2023-05-10T01:45:28.572Z,98599.06
2023-05-10T01:48:10.759Z,98585.03
2023-05-10T01:50:40.867Z,98589.94
2023-05-10T01:53:09.034Z,98608.06
2023-05-10T01:55:43.974Z,98602.16
2023-05-10T01:58:14.248Z,98588.78
2023-05-10T02:00:46.026Z,98602.00
2023-05-10T02:03:14.967Z,98607.47
2023-05-10T02:05:43.074Z,98612.97
2023-05-10T02:08:10.812Z,98569.94
2023-05-10T02:10:38.906Z,98606.50
2023-05-10T02:13:08.440Z,98602.69
2023-05-10T02:15:36.392Z,98612.66
2023-05-10T02:18:05.092Z,98591.84
2023-05-10T02:20:33.482Z,98614.03
2023-05-10T02:23:01.090Z,98604.19
2023-05-10T02:25:28.587Z,98593.66
2023-05-10T02:27:58.055Z,98609.44
2023-05-10T02:30:25.794Z,98594.13
2023-05-10T02:32:53.444Z,98590.84
2023-05-10T02:35:21.071Z,98588.59
2023-05-10T02:37:49.007Z,98601.09
2023-05-10T02:40:17.988Z,98593.81
2023-05-10T02:42:46.619Z,98607.72
2023-05-10T02:45:16.501Z,98597.00
2023-05-10T02:47:43.388Z,98579.56
2023-05-10T02:50:10.729Z,98597.84
2023-05-10T02:52:54.906Z,98596.56
2023-05-10T02:55:26.665Z,98597.38
2023-05-10T02:58:02.146Z,98608.56
2023-05-10T03:00:29.545Z,98608.97
2023-05-10T03:02:56.460Z,98604.03
2023-05-10T03:05:23.498Z,98613.28
2023-05-10T03:07:50.828Z,98596.94
2023-05-10T03:10:19.075Z,98597.50
2023-05-10T03:12:49.272Z,98618.00
2023-05-10T03:15:15.854Z,98618.72
2023-05-10T03:17:51.524Z,98620.88
2023-05-10T03:20:27.070Z,98616.53
2023-05-10T03:23:04.014Z,98606.94
2023-05-10T03:25:32.796Z,98605.25
2023-05-10T03:28:03.501Z,98603.09
2023-05-10T03:30:31.244Z,98620.81
2023-05-10T03:32:58.215Z,98616.66
2023-05-10T03:35:24.945Z,98604.53
2023-05-10T03:37:51.627Z,98619.56
2023-05-10T03:40:18.701Z,98619.81
2023-05-10T03:42:45.657Z,98618.69
2023-05-10T03:45:12.308Z,98610.53
2023-05-10T03:47:39.026Z,98609.50
2023-05-10T03:50:06.548Z,98592.94
2023-05-10T03:52:33.263Z,98613.91
2023-05-10T03:54:59.946Z,98612.63
2023-05-10T03:57:26.650Z,98620.09
2023-05-10T03:59:53.327Z,98626.38
2023-05-10T04:02:20.052Z,98620.34
2023-05-10T04:04:46.718Z,98633.19
2023-05-10T04:07:13.446Z,98631.25
2023-05-10T04:09:40.165Z,98624.56
2023-05-10T04:12:08.439Z,98639.75
2023-05-10T04:14:36.196Z,98639.88
2023-05-10T04:17:03.001Z,98632.94
2023-05-10T04:19:33.033Z,98646.81
2023-05-10T04:21:59.907Z,98640.78
2023-05-10T04:24:26.609Z,98643.97
2023-05-10T04:26:53.616Z,98626.53
2023-05-10T04:29:20.768Z,98599.25
2023-05-10T04:31:47.697Z,98639.50
2023-05-10T04:34:14.403Z,98646.41
2023-05-10T04:36:41.175Z,98643.56
2023-05-10T04:39:08.160Z,98633.94
2023-05-10T04:41:34.922Z,98647.00
2023-05-10T04:44:01.588Z,98639.84
2023-05-10T04:46:28.353Z,98625.69
2023-05-10T04:48:55.045Z,98637.94
2023-05-10T04:51:21.813Z,98621.63
2023-05-10T04:54:01.543Z,98634.28
2023-05-10T04:56:32.446Z,98639.47
2023-05-10T04:58:59.288Z,98635.13
2023-05-10T05:01:26.069Z,98629.25
2023-05-10T05:03:54.183Z,98628.03
2023-05-10T05:06:22.280Z,98635.09
2023-05-10T05:08:50.608Z,98642.28
2023-05-10T05:11:18.254Z,98641.09
2023-05-10T05:13:45.025Z,98635.50
2023-05-10T05:16:12.599Z,98643.16
2023-05-10T05:18:39.944Z,98632.28
2023-05-10T05:21:20.234Z,98644.44
2023-05-10T05:23:47.202Z,98640.78
2023-05-10T05:26:14.028Z,98633.72
2023-05-10T05:28:40.716Z,98630.75
2023-05-10T05:31:11.464Z,98638.16
2023-05-10T05:33:38.517Z,98631.78
2023-05-10T05:36:06.646Z,98647.53
2023-05-10T05:38:33.684Z,98641.03
2023-05-10T05:41:00.427Z,98627.34
2023-05-10T05:43:27.368Z,98634.75
2023-05-10T05:45:59.058Z,98641.13
2023-05-10T05:48:26.062Z,98631.84
2023-05-10T05:50:57.001Z,98627.34
2023-05-10T05:53:24.435Z,98643.50
2023-05-10T05:55:54.883Z,98649.91
2023-05-10T05:58:22.676Z,98641.03
2023-05-10T06:00:49.997Z,98650.94
2023-05-10T06:03:16.875Z,98648.47
2023-05-10T06:05:43.665Z,98649.47
2023-05-10T06:08:10.886Z,98651.16
2023-05-10T06:10:38.003Z,98651.31
2023-05-10T06:13:04.756Z,98654.19
2023-05-10T06:15:31.579Z,98664.47
2023-05-10T06:17:58.303Z,98669.31
2023-05-10T06:20:25.128Z,98651.16
2023-05-10T06:22:51.826Z,98654.00
2023-05-10T06:25:19.545Z,98670.00
2023-05-10T06:27:49.789Z,98663.78
2023-05-10T06:30:17.791Z,98670.16
2023-05-10T06:32:45.203Z,98674.81
2023-05-10T06:35:12.053Z,98666.91
2023-05-10T06:37:38.731Z,98668.25
2023-05-10T06:40:06.906Z,98673.75
2023-05-10T06:42:33.596Z,98663.97
2023-05-10T06:45:00.252Z,98651.91
2023-05-10T06:47:27.082Z,98672.69
2023-05-10T06:49:53.779Z,98672.69
2023-05-10T06:52:20.528Z,98669.34
2023-05-10T06:54:47.241Z,98676.38
2023-05-10T06:57:27.593Z,98679.56
2023-05-10T06:59:58.172Z,98677.88
2023-05-10T07:02:24.861Z,98691.16
2023-05-10T07:04:53.001Z,98674.28
2023-05-10T07:07:20.099Z,98687.91
2023-05-10T07:09:46.926Z,98689.06
2023-05-10T07:12:15.206Z,98683.38
2023-05-10T07:14:43.070Z,98684.72
2023-05-10T07:17:10.366Z,98647.88
2023-05-10T07:19:37.378Z,98688.88
2023-05-10T07:22:04.168Z,98686.38
2023-05-10T07:24:32.372Z,98698.59
2023-05-10T07:26:59.091Z,98686.50
2023-05-10T07:29:26.246Z,98692.28
2023-05-10T07:31:53.116Z,98696.25
2023-05-10T07:34:19.954Z,98704.53
2023-05-10T07:36:46.858Z,98698.59
2023-05-10T07:39:21.212Z,98709.44
2023-05-10T07:41:51.344Z,98699.44
2023-05-10T07:44:20.264Z,98699.56
2023-05-10T07:46:48.735Z,98693.69
2023-05-10T07:49:15.485Z,98706.56
2023-05-10T07:51:43.497Z,98704.41
2023-05-10T07:54:10.257Z,98699.59
2023-05-10T07:56:37.288Z,98706.97
2023-05-10T07:59:09.702Z,98714.03
2023-05-10T08:01:37.753Z,98700.31
2023-05-10T08:04:04.590Z,98694.97
2023-05-10T08:06:31.515Z,98696.59
2023-05-10T08:08:58.702Z,98692.41
2023-05-10T08:11:26.047Z,98710.31
2023-05-10T08:13:53.046Z,98701.00
2023-05-10T08:16:20.099Z,98699.03
2023-05-10T08:18:48.204Z,98698.81
2023-05-10T08:21:16.004Z,98700.50
2023-05-10T08:23:44.953Z,98709.91
2023-05-10T08:26:12.206Z,98717.19
2023-05-10T08:28:39.280Z,98711.66
2023-05-10T08:31:06.613Z,98721.81
2023-05-10T08:33:33.572Z,98717.94
2023-05-10T08:36:00.313Z,98705.19
2023-05-10T08:38:27.153Z,98693.69
2023-05-10T08:40:57.694Z,98703.31
2023-05-10T08:43:31.345Z,98701.81
2023-05-10T08:46:02.380Z,98710.56
2023-05-10T08:48:31.084Z,98707.47
2023-05-10T08:51:01.036Z,98699.22
2023-05-10T08:53:29.916Z,98710.66
2023-05-10T08:55:56.816Z,98704.91
2023-05-10T08:58:23.744Z,98716.13
2023-05-10T09:00:54.146Z,98706.91
2023-05-10T09:03:21.103Z,98703.88
2023-05-10T09:05:48.775Z,98716.00
2023-05-10T09:08:17.456Z,98729.41
2023-05-10T09:10:49.386Z,98730.78
2023-05-10T09:13:16.781Z,98730.38
2023-05-10T09:15:45.814Z,98723.19
2023-05-10T09:18:13.460Z,98722.31
2023-05-10T09:20:40.296Z,98738.19
2023-05-10T09:23:07.154Z,98736.34
2023-05-10T09:25:38.242Z,98741.78
2023-05-10T09:28:08.421Z,98743.56
2023-05-10T09:30:35.326Z,98749.53
2023-05-10T09:33:02.866Z,98743.00
2023-05-10T09:35:33.265Z,98740.16
2023-05-10T09:38:06.665Z,98755.06
2023-05-10T09:40:33.844Z,98753.69
2023-05-10T09:43:10.033Z,98745.59
2023-05-10T09:45:38.821Z,98746.84
2023-05-10T09:48:06.262Z,98752.34
2023-05-10T09:50:33.237Z,98750.59
2023-05-10T09:53:01.896Z,98749.59
2023-05-10T09:55:41.803Z,98753.09
2023-05-10T09:58:11.935Z,98738.34
2023-05-10T10:00:42.872Z,98752.31
2023-05-10T10:03:17.466Z,98758.59
2023-05-10T10:05:45.549Z,98747.25
2023-05-10T10:08:13.480Z,98759.78
2023-05-10T10:10:47.062Z,98746.50
2023-05-10T10:13:14.843Z,98755.72
2023-05-10T10:15:43.125Z,98749.19
2023-05-10T10:18:14.313Z,98771.44
2023-05-10T10:20:41.946Z,98763.91
2023-05-10T10:23:09.643Z,98764.94
2023-05-10T10:25:36.725Z,98759.72
2023-05-10T10:28:28.031Z,98752.22
2023-05-10T10:30:57.766Z,98752.53
2023-05-10T10:33:53.127Z,98768.19
2023-05-10T10:36:20.399Z,98754.88
2023-05-10T10:38:47.056Z,98768.06
2023-05-10T10:41:33.429Z,98770.84
2023-05-10T10:44:40.233Z,98761.44
2023-05-10T10:47:13.323Z,98756.19
2023-05-10T10:49:49.111Z,98753.69
2023-05-10T10:52:24.959Z,98756.13
2023-05-10T10:54:53.424Z,98754.06
2023-05-10T10:57:22.741Z,98753.75
2023-05-10T10:59:50.023Z,98752.28
2023-05-10T11:02:44.191Z,98747.31
2023-05-10T11:05:42.801Z,98755.94
2023-05-10T11:08:20.112Z,98758.16
2023-05-10T11:10:55.588Z,98759.81
2023-05-10T11:13:42.736Z,98761.41
2023-05-10T11:16:21.294Z,98760.41
2023-05-10T11:19:11.640Z,98764.13
2023-05-10T11:22:12.197Z,98760.44
2023-05-10T11:24:38.898Z,98739.13
2023-05-10T11:27:07.066Z,98741.56
2023-05-10T11:29:33.718Z,98761.22
2023-05-10T11:32:01.172Z,98770.28
2023-05-10T11:34:36.464Z,98761.97
2023-05-10T11:37:03.293Z,98751.19
2023-05-10T11:39:31.447Z,98751.53
2023-05-10T11:41:59.386Z,98751.81
2023-05-10T11:44:32.980Z,98736.53
2023-05-10T11:47:03.226Z,98749.28
2023-05-10T11:49:30.104Z,98729.66
2023-05-10T11:52:08.055Z,98737.44
2023-05-10T11:54:37.809Z,98739.69
2023-05-10T11:57:05.229Z,98753.00
2023-05-10T11:59:32.024Z,98750.53
2023-05-10T12:01:59.089Z,98746.53
2023-05-10T12:04:27.048Z,98704.31
2023-05-10T12:06:53.884Z,98748.50
2023-05-10T12:09:31.486Z,98753.81
2023-05-10T12:12:06.967Z,98748.03
2023-05-10T12:14:36.207Z,98743.13
2023-05-10T12:17:02.928Z,98709.56
2023-05-10T12:19:29.707Z,98725.03
2023-05-10T12:21:56.436Z,98735.09
2023-05-10T12:24:23.215Z,98746.34
2023-05-10T12:29:35.779Z,98747.97
2023-05-10T12:32:03.604Z,98706.25
2023-05-10T12:34:35.384Z,98749.59
2023-05-10T12:37:03.804Z,98754.41
2023-05-10T12:39:43.763Z,98758.81
2023-05-10T12:42:10.934Z,98751.94
2023-05-10T12:44:37.634Z,98751.34
2023-05-10T12:47:04.349Z,98756.09
2023-05-10T12:49:31.141Z,98743.41
2023-05-10T12:51:57.839Z,98738.75
2023-05-10T12:54:24.852Z,98750.97
2023-05-10T12:56:51.646Z,98742.47
2023-05-10T12:59:18.271Z,98721.47
2023-05-10T13:01:44.963Z,98727.88
2023-05-10T13:04:18.932Z,98720.13
2023-05-10T13:06:45.716Z,98717.88
2023-05-10T13:09:12.453Z,98732.28
2023-05-10T13:11:39.329Z,98732.19
2023-05-10T13:14:06.186Z,98729.84
2023-05-10T13:16:33.112Z,98691.22
2023-05-10T13:19:01.951Z,98723.38
2023-05-10T13:21:29.086Z,98696.88
2023-05-10T13:23:55.754Z,98709.66
2023-05-10T13:26:22.528Z,98715.91
2023-05-10T13:28:49.966Z,98716.03
2023-05-10T13:31:16.736Z,98693.13
2023-05-10T13:33:43.462Z,98689.72
2023-05-10T13:36:10.210Z,98701.72
2023-05-10T13:38:37.193Z,98696.41
2023-05-10T13:41:04.083Z,98699.97
2023-05-10T13:43:31.219Z,98700.06
2023-05-10T13:45:58.043Z,98695.97
2023-05-10T13:48:24.745Z,98689.50
2023-05-10T13:50:51.422Z,98693.25
2023-05-10T13:53:18.098Z,98697.41
2023-05-10T13:55:44.847Z,98700.03
2023-05-10T13:58:12.571Z,98687.00
2023-05-10T14:00:39.289Z,98686.53
2023-05-10T14:03:07.511Z,98662.84
2023-05-10T14:05:34.302Z,98690.78
2023-05-10T14:08:00.920Z,98655.72
2023-05-10T14:10:27.609Z,98683.72
2023-05-10T14:12:54.213Z,98679.66
2023-05-10T14:15:21.068Z,98670.06
2023-05-10T14:17:47.755Z,98677.34
2023-05-10T14:20:14.499Z,98679.72
2023-05-10T14:22:41.528Z,98644.19
2023-05-10T14:25:08.847Z,98676.47
2023-05-10T14:27:35.777Z,98663.75
2023-05-10T14:30:02.481Z,98664.81
2023-05-10T14:32:29.550Z,98665.66
2023-05-10T14:34:56.812Z,98672.69
2023-05-10T14:37:23.534Z,98651.41
2023-05-10T14:39:50.247Z,98661.84
2023-05-10T14:42:16.980Z,98668.13
2023-05-10T14:44:43.659Z,98659.56
2023-05-10T14:47:12.084Z,98626.47
2023-05-10T14:49:40.083Z,98660.84
2023-05-10T14:52:06.765Z,98660.88
2023-05-10T14:54:34.610Z,98655.47
2023-05-10T14:57:01.741Z,98633.28
2023-05-10T14:59:28.401Z,98668.63
2023-05-10T15:01:55.490Z,98664.47
2023-05-10T15:04:22.614Z,98667.16
2023-05-10T15:06:49.718Z,98666.75
2023-05-10T15:09:17.479Z,98670.31
2023-05-10T15:11:45.523Z,98670.91
2023-05-10T15:14:12.222Z,98662.91
2023-05-10T15:16:38.928Z,98650.97
2023-05-10T15:19:05.763Z,98681.91
2023-05-10T15:21:39.665Z,98642.75
2023-05-10T15:24:06.990Z,98671.13
2023-05-10T15:26:33.692Z,98676.94
2023-05-10T15:29:00.488Z,98628.97
2023-05-10T15:31:28.229Z,98685.63
2023-05-10T15:34:01.942Z,98676.84
2023-05-10T15:36:28.631Z,98682.03
2023-05-10T15:38:55.787Z,98677.31
2023-05-10T15:41:25.704Z,98659.31
2023-05-10T15:43:52.441Z,98666.31
2023-05-10T15:46:19.173Z,98653.25
2023-05-10T15:48:45.903Z,98659.00
2023-05-10T15:51:12.664Z,98661.97
2023-05-10T15:53:46.652Z,98630.38
2023-05-10T15:56:19.833Z,98675.75
2023-05-10T15:58:46.930Z,98683.50
2023-05-10T16:01:13.870Z,98674.69
2023-05-10T16:03:40.647Z,98662.91
2023-05-10T16:06:07.506Z,98684.22
2023-05-10T16:08:34.284Z,98681.19
2023-05-10T16:11:02.176Z,98671.13
2023-05-10T16:13:29.596Z,98662.31
2023-05-10T16:15:57.690Z,98668.78
2023-05-10T16:18:24.673Z,98664.63
2023-05-10T16:20:51.924Z,98663.41
2023-05-10T16:23:18.756Z,98681.78
2023-05-10T16:25:45.624Z,98687.41
2023-05-10T16:28:12.356Z,98690.25
2023-05-10T16:30:39.081Z,98685.19
2023-05-10T16:33:05.839Z,98675.94
2023-05-10T16:35:32.711Z,98686.91
2023-05-10T16:38:00.495Z,98701.72
2023-05-10T16:40:27.136Z,98685.97
2023-05-10T16:42:53.827Z,98681.50
2023-05-10T16:45:20.661Z,98698.34
2023-05-10T16:47:47.358Z,98693.63
2023-05-10T16:50:15.099Z,98684.91
2023-05-10T16:52:53.759Z,98698.97
2023-05-10T16:55:21.514Z,98697.88
2023-05-10T16:57:49.696Z,98680.34
2023-05-10T17:00:16.797Z,98693.69
2023-05-10T17:02:43.598Z,98698.72
2023-05-10T17:05:10.533Z,98694.53
2023-05-10T17:07:37.420Z,98689.56
2023-05-10T17:10:04.425Z,98686.84
2023-05-10T17:12:31.071Z,98710.63
2023-05-10T17:14:58.756Z,98700.00
2023-05-10T17:17:25.814Z,98712.53
2023-05-10T17:19:52.846Z,98693.94
2023-05-10T17:22:19.660Z,98695.72
2023-05-10T17:24:46.880Z,98717.34
2023-05-10T17:27:14.061Z,98706.38
2023-05-10T17:29:40.859Z,98721.44
2023-05-10T17:32:09.437Z,98710.63
2023-05-10T17:34:39.250Z,98719.63
2023-05-10T17:37:05.920Z,98729.59
2023-05-10T17:39:34.272Z,98729.22
2023-05-10T17:42:01.062Z,98724.06
2023-05-10T17:44:28.061Z,98693.22
2023-05-10T17:46:54.758Z,98728.44
2023-05-10T17:49:21.498Z,98721.91
2023-05-10T17:51:48.328Z,98740.75
2023-05-10T17:54:15.205Z,98737.38
2023-05-10T17:56:42.190Z,98758.81
2023-05-10T17:59:09.029Z,98741.66
2023-05-10T18:01:36.137Z,98757.00
2023-05-10T18:04:02.952Z,98750.28
2023-05-10T18:06:29.734Z,98747.63
2023-05-10T18:08:56.519Z,98752.81
2023-05-10T18:11:23.741Z,98764.25
2023-05-10T18:13:50.518Z,98761.66
2023-05-10T18:16:17.330Z,98770.03
2023-05-10T18:18:44.112Z,98775.47
2023-05-10T18:21:11.263Z,98770.38
2023-05-10T18:23:37.952Z,98784.72
2023-05-10T18:26:04.846Z,98786.13
2023-05-10T18:28:31.725Z,98776.13
2023-05-10T18:30:58.575Z,98794.94
2023-05-10T18:33:25.352Z,98799.50
2023-05-10T18:35:52.284Z,98795.41
2023-05-10T18:38:19.613Z,98798.41
2023-05-10T18:40:46.495Z,98804.13
2023-05-10T18:43:13.350Z,98793.41
2023-05-10T18:45:40.152Z,98788.13
2023-05-10T18:48:07.969Z,98816.38
2023-05-10T18:50:34.805Z,98820.66
2023-05-10T18:53:01.507Z,98819.25
2023-05-10T18:55:28.778Z,98811.56
2023-05-10T18:57:55.493Z,98829.44
2023-05-10T19:00:22.918Z,98836.53
2023-05-10T19:02:50.644Z,98828.63
2023-05-10T19:05:17.771Z,98840.06
2023-05-10T19:07:44.990Z,98830.41
2023-05-10T19:10:15.324Z,98828.25
2023-05-10T19:12:42.811Z,98819.84
2023-05-10T19:15:10.986Z,98841.22
2023-05-10T19:17:43.352Z,98836.03
2023-05-10T19:20:12.083Z,98849.88
2023-05-10T19:22:54.339Z,98851.91
2023-05-10T19:25:29.725Z,98865.41
2023-05-10T19:27:59.774Z,98865.91
2023-05-10T19:30:26.953Z,98873.78
2023-05-10T19:32:54.312Z,98872.94
2023-05-10T19:35:21.367Z,98862.69
2023-05-10T19:37:49.390Z,98872.28
2023-05-10T19:40:17.665Z,98870.41
2023-05-10T19:42:45.110Z,98872.28
2023-05-10T19:45:12.404Z,98864.75
2023-05-10T19:47:39.725Z,98877.88
2023-05-10T19:50:08.382Z,98879.06
2023-05-10T19:52:35.577Z,98881.41
2023-05-10T19:55:02.355Z,98891.84
2023-05-10T19:57:29.489Z,98880.56
2023-05-10T19:59:56.470Z,98881.06
2023-05-10T20:02:23.476Z,98861.88
2023-05-10T20:04:50.967Z,98880.41
2023-05-10T20:07:18.072Z,98862.03
2023-05-10T20:09:44.953Z,98857.50
2023-05-10T20:12:12.333Z,98864.91
2023-05-10T20:14:39.634Z,98867.59
2023-05-10T20:17:06.541Z,98870.81
2023-05-10T20:19:34.185Z,98880.22
2023-05-10T20:22:01.603Z,98878.22
2023-05-10T20:24:28.714Z,98885.97
2023-05-10T20:26:55.554Z,98872.81
2023-05-10T20:29:22.529Z,98898.25
2023-05-10T20:31:49.340Z,98865.91
2023-05-10T20:34:16.125Z,98871.16
2023-05-10T20:36:43.124Z,98885.28
2023-05-10T20:39:10.544Z,98898.09
2023-05-10T20:41:37.283Z,98877.69
2023-05-10T20:44:05.663Z,98880.75
2023-05-10T20:46:33.178Z,98895.72
2023-05-10T20:49:00.217Z,98906.34
2023-05-10T20:51:29.032Z,98915.22
2023-05-10T20:53:57.219Z,98910.22
2023-05-10T20:56:23.947Z,98907.84
2023-05-10T20:58:50.629Z,98899.59
2023-05-10T21:01:17.355Z,98896.19
2023-05-10T21:03:44.076Z,98898.75
2023-05-10T21:06:10.752Z,98894.19
2023-05-10T21:08:37.456Z,98893.50
2023-05-10T21:11:06.933Z,98892.88
2023-05-10T21:13:33.705Z,98895.69
2023-05-10T21:16:00.681Z,98904.81
2023-05-10T21:18:27.565Z,98890.50
2023-05-10T21:20:54.490Z,98895.53
2023-05-10T21:23:21.167Z,98891.50
2023-05-10T21:25:47.945Z,98889.31
2023-05-10T21:28:14.666Z,98898.25
2023-05-10T21:30:41.409Z,98896.06
2023-05-10T21:33:08.252Z,98903.63
2023-05-10T21:35:34.985Z,98905.81
2023-05-10T21:38:01.832Z,98905.97
2023-05-10T21:40:29.080Z,98907.66
2023-05-10T21:42:55.863Z,98919.28
2023-05-10T21:45:22.671Z,98899.25
2023-05-10T21:47:49.550Z,98921.16
2023-05-10T21:50:16.488Z,98900.94
2023-05-10T21:52:43.683Z,98908.66
2023-05-10T21:55:10.544Z,98926.00
2023-05-10T21:57:37.256Z,98925.00
2023-05-10T22:00:05.028Z,98906.50
2023-05-10T22:02:31.901Z,98922.66
2023-05-10T22:04:58.702Z,98915.22
2023-05-10T22:07:25.448Z,98894.84
2023-05-10T22:09:52.220Z,98913.06
2023-05-10T22:12:18.987Z,98929.72
2023-05-10T22:14:45.990Z,98913.19
2023-05-10T22:17:12.841Z,98919.94
2023-05-10T22:19:39.747Z,98914.38
2023-05-10T22:22:06.519Z,98911.34
2023-05-10T22:24:33.356Z,98897.22
2023-05-10T22:27:00.044Z,98907.50
2023-05-10T22:29:26.801Z,98907.13
2023-05-10T22:31:53.568Z,98919.09
2023-05-10T22:34:20.278Z,98910.69
2023-05-10T22:36:46.997Z,98899.91
2023-05-10T22:39:13.706Z,98911.69
2023-05-10T22:41:40.479Z,98891.31
2023-05-10T22:44:08.364Z,98914.00
2023-05-10T22:46:36.459Z,98908.44
2023-05-10T22:49:03.327Z,98903.41
2023-05-10T22:51:30.078Z,98898.88
2023-05-10T22:53:56.770Z,98888.25
2023-05-10T22:56:23.541Z,98897.66
2023-05-10T22:58:51.153Z,98911.97
2023-05-10T23:03:33.479Z,98899.50
2023-05-10T23:06:00.325Z,98916.50
2023-05-10T23:08:27.143Z,98910.25
2023-05-10T23:10:53.926Z,98914.09
2023-05-10T23:13:21.999Z,98926.03
2023-05-10T23:15:48.722Z,98929.75
2023-05-10T23:18:15.647Z,98929.13
2023-05-10T23:20:45.719Z,98914.63
2023-05-10T23:23:12.596Z,98877.41
2023-05-10T23:25:39.391Z,98914.94
2023-05-10T23:28:06.196Z,98915.44
2023-05-10T23:30:32.924Z,98921.03
2023-05-10T23:32:59.802Z,98922.53
2023-05-10T23:35:26.572Z,98907.16
2023-05-10T23:37:53.312Z,98922.81
2023-05-10T23:40:20.185Z,98906.69
2023-05-10T23:42:47.205Z,98916.59
2023-05-10T23:45:13.956Z,98900.94
2023-05-10T23:47:40.668Z,98939.69
2023-05-10T23:50:08.000Z,98938.00
2023-05-10T23:52:34.784Z,98940.00
2023-05-10T23:55:01.527Z,98948.59
2023-05-10T23:57:28.364Z,98938.31
2023-05-10T23:59:55.085Z,98938.53
